createdAt,value
2023-08-03T00:04:01.481Z,78.90
2023-08-03T00:09:06.685Z,79.17
2023-08-03T00:14:12.081Z,79.50
2023-08-03T00:19:16.325Z,79.80
2023-08-03T00:24:20.768Z,80.42
2023-08-03T00:29:25.397Z,80.78
2023-08-03T00:34:30.344Z,81.05
2023-08-03T00:39:34.359Z,81.65
2023-08-03T00:44:39.910Z,82.05
2023-08-03T00:49:44.382Z,82.59
2023-08-03T00:54:49.257Z,82.99
2023-08-03T00:59:53.487Z,83.22
2023-08-03T01:04:59.196Z,83.61
2023-08-03T01:10:03.547Z,83.82
2023-08-03T01:15:10.742Z,83.94
2023-08-03T01:20:15.735Z,83.75
2023-08-03T01:25:22.019Z,83.85
2023-08-03T01:30:26.135Z,83.66
2023-08-03T01:35:30.116Z,84.00
2023-08-03T01:40:34.056Z,84.13
2023-08-03T01:45:38.537Z,84.38
2023-08-03T01:50:42.983Z,84.31
2023-08-03T02:05:50.800Z,84.72
2023-08-03T02:20:54.981Z,85.60
2023-08-03T02:26:04.166Z,85.85
2023-08-03T02:31:11.611Z,86.01
2023-08-03T02:36:19.380Z,86.29
2023-08-03T02:41:26.554Z,86.58
2023-08-03T02:46:34.257Z,86.71
2023-08-03T02:51:42.412Z,87.22
2023-08-03T02:56:52.412Z,87.12
2023-08-03T03:01:59.897Z,87.24
2023-08-03T03:07:09.778Z,87.25
2023-08-03T03:12:17.663Z,87.07
2023-08-03T03:17:25.352Z,86.84
2023-08-03T03:22:32.855Z,86.43
2023-08-03T03:27:40.247Z,86.07
2023-08-03T03:32:48.893Z,86.11
2023-08-03T03:37:56.387Z,85.94
2023-08-03T03:43:03.920Z,86.09
2023-08-03T03:48:11.829Z,85.25
2023-08-03T03:53:19.567Z,85.05
2023-08-03T03:58:27.453Z,85.09
2023-08-03T04:03:34.998Z,85.02
2023-08-03T04:08:43.290Z,85.03
2023-08-03T04:13:50.776Z,84.77
2023-08-03T04:18:58.201Z,84.37
2023-08-03T04:24:05.691Z,83.84
2023-08-03T04:29:13.146Z,83.28
2023-08-03T04:34:21.324Z,83.34
2023-08-03T04:39:29.166Z,83.55
2023-08-03T04:44:37.046Z,83.72
2023-08-03T04:49:44.543Z,84.33
2023-08-03T04:54:52.150Z,84.69
2023-08-03T05:00:00.076Z,85.18
2023-08-03T05:05:08.586Z,84.96
2023-08-03T05:10:16.551Z,84.60
2023-08-03T05:15:27.101Z,85.00
2023-08-03T05:20:34.369Z,85.18
2023-08-03T05:25:42.236Z,85.25
2023-08-03T05:30:49.981Z,85.51
2023-08-03T05:35:57.984Z,86.00
2023-08-03T05:41:06.505Z,85.96
2023-08-03T05:46:17.127Z,85.49
2023-08-03T05:51:31.334Z,85.04
2023-08-03T05:56:40.758Z,84.97
2023-08-03T06:01:49.467Z,84.91
2023-08-03T06:06:57.377Z,84.90
2023-08-03T06:12:06.726Z,84.94
2023-08-03T06:17:14.838Z,85.21
2023-08-03T06:22:23.704Z,85.68
2023-08-03T06:27:31.238Z,86.18
2023-08-03T06:32:38.918Z,86.83
2023-08-03T06:37:46.760Z,87.30
2023-08-03T06:42:54.536Z,87.61
2023-08-03T06:48:03.007Z,88.02
2023-08-03T06:53:11.117Z,87.90
2023-08-03T06:58:20.071Z,87.71
2023-08-03T07:03:27.857Z,87.50
2023-08-03T07:08:35.429Z,87.78
2023-08-03T07:13:43.544Z,87.97
2023-08-03T07:18:51.399Z,88.12
2023-08-03T07:23:58.991Z,88.32
2023-08-03T07:29:06.923Z,88.75
2023-08-03T07:34:14.536Z,89.13
2023-08-03T07:39:22.815Z,89.45
2023-08-03T07:49:41.233Z,89.37
2023-08-03T07:54:49.503Z,90.01
2023-08-03T07:59:57.264Z,91.54
2023-08-03T08:05:05.764Z,93.51
2023-08-03T08:10:14.662Z,95.04
2023-08-03T08:15:22.428Z,93.53
2023-08-03T08:20:30.039Z,93.05
2023-08-03T08:25:39.281Z,93.45
2023-08-03T08:30:47.293Z,94.20
2023-08-03T08:35:56.971Z,94.80
2023-08-03T08:41:06.532Z,95.51
2023-08-03T08:46:14.346Z,95.59
2023-08-03T09:01:54.760Z,94.49
2023-08-03T09:07:03.507Z,93.49
2023-08-03T09:12:25.590Z,92.74
2023-08-03T09:17:33.906Z,92.08
2023-08-03T09:27:59.935Z,92.58
2023-08-03T09:38:28.661Z,92.44
2023-08-03T09:43:37.668Z,91.92
2023-08-03T09:49:14.102Z,92.12
2023-08-03T09:54:21.706Z,92.52
2023-08-03T09:59:33.004Z,93.11
2023-08-03T10:04:46.295Z,93.39
2023-08-03T10:09:59.912Z,93.10
2023-08-03T10:15:11.301Z,92.58
2023-08-03T10:20:21.406Z,92.47
2023-08-03T10:25:29.461Z,91.94
2023-08-03T10:31:12.789Z,91.82
2023-08-03T10:36:42.688Z,91.59
2023-08-03T10:41:52.578Z,90.67
2023-08-03T10:47:03.979Z,91.03
2023-08-03T10:52:22.625Z,90.64
2023-08-03T10:57:32.477Z,90.06
2023-08-03T11:02:40.853Z,89.81
2023-08-03T11:07:49.497Z,89.73
2023-08-03T11:12:57.887Z,89.85
2023-08-03T11:18:16.202Z,89.55
2023-08-03T11:23:23.806Z,89.22
2023-08-03T11:28:31.302Z,89.76
2023-08-03T11:37:37.770Z,91.19
2023-08-03T11:42:44.007Z,91.46
2023-08-03T11:47:48.514Z,91.66
2023-08-03T11:53:13.299Z,90.89
2023-08-03T11:58:27.579Z,90.93
2023-08-03T12:03:33.799Z,91.06
2023-08-03T12:08:43.418Z,91.55
2023-08-03T12:13:47.514Z,91.59
2023-08-03T12:18:51.659Z,91.60
2023-08-03T12:23:56.300Z,91.76
2023-08-03T12:34:09.239Z,92.19
2023-08-03T12:39:13.973Z,92.24
2023-08-03T12:44:18.267Z,92.05
2023-08-03T12:49:22.216Z,91.88
2023-08-03T12:54:28.495Z,91.50
2023-08-03T12:59:33.568Z,91.44
2023-08-03T13:04:38.339Z,91.81
2023-08-03T13:09:43.580Z,91.94
2023-08-03T13:14:48.482Z,92.71
2023-08-03T13:19:52.570Z,92.40
2023-08-03T13:24:56.421Z,91.40
2023-08-03T13:30:00.375Z,90.85
2023-08-03T13:40:47.461Z,90.60
2023-08-03T13:45:55.954Z,90.95
2023-08-03T13:51:03.237Z,90.95
2023-08-03T13:56:11.363Z,89.89
2023-08-03T14:01:19.112Z,90.01
2023-08-03T14:06:29.385Z,90.43
2023-08-03T14:16:54.442Z,87.48
2023-08-03T14:22:03.361Z,87.02
2023-08-03T14:27:23.434Z,87.14
2023-08-03T14:32:32.605Z,86.31
2023-08-03T14:37:40.482Z,86.61
2023-08-03T14:42:56.424Z,87.04
2023-08-03T14:48:08.838Z,86.14
2023-08-03T14:53:19.832Z,85.29
2023-08-03T14:58:32.390Z,83.98
2023-08-03T15:03:40.206Z,82.41
2023-08-03T15:08:48.632Z,81.22
2023-08-03T15:13:59.584Z,80.66
2023-08-03T15:24:18.997Z,78.50
2023-08-03T15:29:28.665Z,77.64
2023-08-03T15:34:49.315Z,77.05
2023-08-03T15:40:01.594Z,77.11
2023-08-03T15:45:16.992Z,76.54
2023-08-03T15:50:32.142Z,76.78
2023-08-03T16:00:54.715Z,76.37
2023-08-03T16:06:09.284Z,76.09
2023-08-03T16:11:22.723Z,75.41
2023-08-03T16:16:37.121Z,75.53
2023-08-03T16:21:45.005Z,75.55
2023-08-03T16:26:53.409Z,74.19
2023-08-03T16:32:01.551Z,73.42
2023-08-03T16:37:09.566Z,73.28
2023-08-03T16:42:18.503Z,74.28
2023-08-03T16:47:26.324Z,74.54
2023-08-03T16:52:34.144Z,73.91
2023-08-03T16:57:42.171Z,73.92
2023-08-03T17:02:49.621Z,74.62
2023-08-03T17:07:57.139Z,75.22
2023-08-03T17:13:04.528Z,75.24
2023-08-03T17:18:13.074Z,75.15
2023-08-03T17:23:20.660Z,74.77
2023-08-03T17:28:30.275Z,74.53
2023-08-03T17:33:37.977Z,73.84
2023-08-03T17:38:45.704Z,73.33
2023-08-03T17:43:53.492Z,73.69
2023-08-03T17:49:01.327Z,75.82
2023-08-03T17:54:10.139Z,76.70
2023-08-03T17:59:17.612Z,77.53
2023-08-03T18:04:27.595Z,78.91
2023-08-03T18:09:36.577Z,78.70
2023-08-03T18:14:44.356Z,79.06
2023-08-03T18:19:55.446Z,79.58
2023-08-03T18:25:03.324Z,80.23
2023-08-03T18:30:13.077Z,80.90
2023-08-03T18:35:21.147Z,80.64
2023-08-03T18:40:30.899Z,81.72
2023-08-03T18:45:38.722Z,82.94
2023-08-03T18:50:46.950Z,82.59
2023-08-03T18:55:54.506Z,82.79
2023-08-03T19:01:06.391Z,84.24
2023-08-03T19:06:16.089Z,84.06
2023-08-03T19:11:25.072Z,84.61
2023-08-03T19:21:41.672Z,86.13
2023-08-03T19:26:50.754Z,86.55
2023-08-03T19:31:58.733Z,87.93
2023-08-03T19:37:07.087Z,88.66
2023-08-03T19:42:17.471Z,88.71
2023-08-03T19:47:25.740Z,89.53
2023-08-03T19:53:40.672Z,89.69
2023-08-03T20:08:26.745Z,89.95
2023-08-03T20:13:56.132Z,90.52
2023-08-03T20:24:13.726Z,90.77
2023-08-03T20:29:22.601Z,90.73
2023-08-03T20:34:30.206Z,90.80
2023-08-03T20:39:38.409Z,89.95
2023-08-03T20:49:57.182Z,90.14
2023-08-03T20:55:05.449Z,90.55
2023-08-03T21:00:14.750Z,90.86
2023-08-03T21:05:23.483Z,90.22
2023-08-03T21:15:43.448Z,90.88
2023-08-03T21:20:51.679Z,91.27
2023-08-03T21:25:59.560Z,91.48
2023-08-03T21:31:10.045Z,91.79
2023-08-03T21:36:18.217Z,91.91
2023-08-03T21:41:25.939Z,91.50
2023-08-03T21:46:33.474Z,91.90
2023-08-03T21:51:41.386Z,91.98
2023-08-03T21:56:48.881Z,91.29
2023-08-03T22:01:56.770Z,91.44
2023-08-03T22:07:04.821Z,91.75
2023-08-03T22:12:13.219Z,91.62
2023-08-03T22:17:20.669Z,91.27
2023-08-03T22:22:28.195Z,91.53
2023-08-03T22:27:36.020Z,91.61
2023-08-03T22:32:47.347Z,91.94
2023-08-03T22:37:54.929Z,92.30
2023-08-03T22:43:03.664Z,92.27
2023-08-03T22:48:12.521Z,91.47
2023-08-03T22:53:20.359Z,89.90
2023-08-03T22:58:28.706Z,90.85
2023-08-03T23:03:40.946Z,91.06
2023-08-03T23:08:51.742Z,91.03
2023-08-03T23:14:01.555Z,89.92
2023-08-03T23:19:08.772Z,90.22
2023-08-03T23:24:17.381Z,90.19
2023-08-03T23:29:26.501Z,89.75
2023-08-03T23:34:35.025Z,90.13
2023-08-03T23:39:42.703Z,90.36
2023-08-03T23:44:50.442Z,90.78
2023-08-03T23:49:58.917Z,89.69
2023-08-03T23:55:07.782Z,89.09
